Sierra Nevada Aquatic Research Lab (SNARL) Reserve, Santa Monica Mtns, California Weather observations

Data are for 10 minute period ending at time listed.
 Day   Time   Solar   Ave.   Ave.  Ave.  Vector  Max.   Baro.   Total    
  of    of     Rad.   Air    Rel.  Wind   Wind   Wind  Press.  Precip.   
Year   Day            Temp.  Hum.  Speed  Dir.   Gust                    
2014   (PST)  Kw/m2    F      %     mph   deg.    mph    mb.     in.     
-------------------------------------------------------------------------
 109    6:40   0.18   41.6    67    2.2   351     4.7   783.8    0.00 
 109    6:50   0.21   42.3    71    2.5    14     4.1   783.8    0.00 
 109    7:00   0.28   44.0    68    0.6    54     2.9   783.8    0.00 
 109    7:10   0.27   46.0    63    1.3     2     2.8   783.9    0.00 
 109    7:20   0.23   46.7    61    0.5    70     1.8   784.0    0.00 
 109    7:30   0.33   47.9    58    0.5    86     2.0   784.0    0.00 
 109    7:40   0.33   49.6    55    1.5    53     3.1   784.0    0.00 
 109    7:50   0.32   49.4    55    3.1    50     5.6   784.0    0.00 
 109    8:00   0.32   49.5    55    3.6    54     6.6   783.9    0.00 
 109    8:10   0.48   50.6    54    4.3    65     8.1   783.9    0.00 
 109    8:20   0.53   52.4    52    5.5    59     9.0   783.7    0.00 
 109    8:30   0.43   52.8    51    5.6    65    10.0   783.7    0.00 
 109    8:40   0.33   52.5    50    6.5    82     9.6   783.7    0.00 
 109    8:50   0.60   54.1    48    6.5   103     9.5   783.8    0.00 
 109    9:00   0.56   56.0    42    5.3    83     9.9   783.9    0.00 
 109    9:10   0.59   56.1    40    4.2    77     9.1   784.0    0.00 
 109    9:20   0.66   56.1    38    5.1   102     8.1   784.1    0.00 
 109    9:30   0.69   56.5    38    3.2   165     6.4   784.1    0.00 
 109    9:40   0.80   58.4    36    4.0    87     7.6   784.2    0.00 
 109    9:50   0.85   59.1    34    4.4    83     7.4   784.2    0.00 
 109   10:00   0.86   59.5    32    4.1    84     8.5   784.2    0.00 
 109   10:10   0.87   60.3    30    3.7   344     9.3   784.2    0.00 
 109   10:20   0.89   61.1    27    4.5   182    11.5   784.2    0.00 
 109   10:30   0.90   61.7    24    5.7   186    12.6   784.1    0.00 
 109   10:40   0.92   63.4    22    7.3   219    14.6   784.1    0.00 
 109   10:50   0.93   63.9    21    8.5   219    16.3   784.2    0.00 
 109   11:00   0.94   63.6    21    4.9   202    11.9   784.3    0.00 
 109   11:10   0.98   64.0    19    7.6   249    16.4   784.2    0.00 
 109   11:20   0.99   64.5    18    9.4   240    19.1   784.2    0.00 
 109   11:30   1.01   65.0    19    8.3   235    14.8   784.1    0.00 
 109   11:40   0.90   65.5    19   10.6   240    20.6   784.1    0.00 
 109   11:50   0.99   65.3    19   11.3   231    19.6   784.2    0.00 
 109   12:00   1.00   65.3    20   11.1   243    20.9   784.2    0.00 
 109   12:10   0.99   65.7    20   11.0   245    20.0   784.2    0.00 
 109   12:20   0.97   64.9    22   13.5   220    21.4   784.1    0.00 
 109   12:30   0.97   65.1    22   12.8   220    21.0   784.1    0.00 
 109   12:40   0.96   65.1    21    9.5   218    16.7   784.1    0.00 
 109   12:50   0.95   66.5    20    8.8   221    17.6   784.1    0.00 
 109   13:00   0.94   66.5    18    8.0   258    16.1   784.1    0.00 
 109   13:10   0.93   66.1    19    7.1   242    14.5   784.0    0.00 
 109   13:20   0.92   65.8    17   11.7   260    21.0   784.0    0.00 
 109   13:30   0.89   66.0    17   10.2   284    17.5   784.0    0.00 
 109   13:40   0.83   66.3    19   11.2   265    19.7   783.9    0.00 
 109   13:50   0.89   65.8    19   10.6   277    17.2   783.9    0.00 
 109   14:00   0.83   65.8    20   11.2   278    17.8   783.8    0.00 
 109   14:10   0.81   66.2    21   11.4   274    18.3   783.8    0.00 
 109   14:20   0.80   65.8    22   14.3   272    22.0   783.8    0.00 
 109   14:30   0.78   65.9    23   10.8   260    22.3   783.8    0.00 
 109   14:40   0.62   66.9    22   10.3   256    17.2   783.8    0.00 
 109   14:50   0.68   65.9    24   11.0   235    18.3   783.8    0.00 
 109   15:00   0.67   66.0    24   12.7   223    19.7   783.8    0.00 
 109   15:10   0.65   65.7    25   12.6   228    24.7   783.8    0.00 
 109   15:20   0.64   65.5    25   12.0   229    20.7   783.9    0.00 
 109   15:30   0.60   65.6    26   14.5   227    26.7   783.9    0.00 
 109   15:40   0.57   64.3    27   14.8   216    21.5   784.0    0.00 
 109   15:50   0.53   64.1    28   13.4   223    19.0   784.1    0.00 
 109   16:00   0.49   63.9    28   14.0   216    21.0   784.1    0.00 
 109   16:10   0.46   63.4    29   15.0   230    22.8   784.1    0.00 
 109   16:20   0.42   63.0    29   13.4   228    21.8   784.2    0.00 
 109   16:30   0.38   62.7    29   12.3   235    21.0   784.3    0.00 
 109   16:40   0.34   62.4    30   14.4   239    19.4   784.3    0.00 
 109   16:50   0.31   61.6    32   14.0   234    21.5   784.3    0.00 
 109   17:00   0.27   61.3    32   14.5   235    22.5   784.3    0.00 
 109   17:10   0.24   60.8    32   13.7   226    20.0   784.2    0.00 
 109   17:20   0.20   60.3    33   14.3   233    21.2   784.2    0.00 
 109   17:30   0.17   59.6    34   12.8   229    20.0   784.2    0.00 
 109   17:40   0.13   59.0    34   15.8   223    22.4   784.2    0.00 
 109   17:50   0.10   58.2    35   13.8   231    22.6   784.2    0.00 
 109   18:00   0.07   57.7    36   12.7   228    19.8   784.2    0.00 
 109   18:10   0.04   57.0    38   15.8   215    22.0   784.1    0.00 
 109   18:20   0.01   56.0    39   16.8   218    24.2   784.2    0.00 
 109   18:30   0.00   55.3    40   14.8   218    21.0   784.1    0.00 
 109   18:40   0.00   55.1    40   14.5   218    19.6   784.1    0.00 
 109   18:50   0.00   54.9    39   13.3   209    19.7   784.1    0.00 
 109   19:00   0.00   54.6    38   12.6   216    16.1   784.3    0.00 
 109   19:10   0.00   53.9    39    8.1   226    12.1   784.5    0.00 
 109   19:20   0.00   52.9    40    8.0   254    12.7   784.6    0.00 
 109   19:30   0.00   52.2    41    6.0   268    12.2   784.8    0.00 
 109   19:40   0.00   50.7    43    4.0   282     7.4   784.9    0.00 
 109   19:50   0.00   49.1    44    2.8   297     7.7   785.0    0.00 
 109   20:00   0.00   47.6    47    2.5   238     8.0   785.3    0.00 
 109   20:10   0.00   47.3    50    3.7    14     7.1   785.5    0.00 
 109   20:20   0.00   45.8    52    1.7   155     4.5   785.6    0.00 
 109   20:30   0.00   43.7    54    2.8   231     6.1   785.6    0.00 
 109   20:40   0.00   42.6    56    2.2   194     3.9   785.7    0.00 
 109   20:50   0.00   41.3    58    1.2   229     2.6   785.8    0.00 
 109   21:00   0.00   40.0    60    2.6   100     4.5   785.9    0.00 
 109   21:10   0.00   40.0    62    1.7   192     5.3   786.0    0.00 
 109   21:20   0.00   40.3    62    3.0   166     5.8   786.1    0.00 
 109   21:30   0.00   40.3    61    1.9    73     3.5   786.1    0.00 
 109   21:40   0.00   38.4    61    1.7   243     5.2   786.2    0.00 
 109   21:50   0.00   38.0    62    3.3   171     5.9   786.3    0.00 
 109   22:00   0.00   37.4    64    3.1   187     5.6   786.4    0.00 
 109   22:10   0.00   37.7    65    2.2   208     5.3   786.4    0.00 
 109   22:20   0.00   36.4    67    3.1   179     5.4   786.4    0.00 
 109   22:30   0.00   36.7    69    1.4   207     5.1   786.4    0.00 
 109   22:40   0.00   35.9    68    1.3   197     2.9   786.5    0.00 
 109   22:50   0.00   35.4    69    1.1   208     3.9   786.6    0.00 
 109   23:00   0.00   35.0    70    0.8   180     3.6   786.7    0.00 
 109   23:10   0.00   34.4    68    1.1    90     3.6   786.7    0.00 
 109   23:20   0.00   33.5    72    1.5   330     3.1   786.7    0.00 
 109   23:30   0.00   34.3    71    1.4   284     4.7   786.7    0.00 
 109   23:40   0.00   33.6    73    2.2   221     5.6   786.8    0.00 
 109   23:50   0.00   34.7    70    2.3   217     5.1   786.9    0.00 
 110    0:00   0.00   34.5    71    1.9   174     5.0   786.9    0.00 
 110    0:10   0.00   33.7    72    3.5   233     5.3   786.8    0.00 
 110    0:20   0.00   33.9    71    1.5   227     3.5   786.8    0.00 
 110    0:30   0.00   32.7    75    0.7   291     1.8   786.8    0.00 
 110    0:40   0.00   32.7    74    1.9   223     7.2   786.9    0.00 
 110    0:50   0.00   31.9    73    1.5   236     3.3   786.9    0.00 
 110    1:00   0.00   31.2    73    1.9   220     4.6   786.9    0.00 
 110    1:10   0.00   31.2    73    2.9   230     5.6   786.8    0.00 
 110    1:20   0.00   31.0    72    1.8   228     3.8   786.8    0.00 
 110    1:30   0.00   31.1    72    1.4   189     4.7   786.8    0.00 
 110    1:40   0.00   30.9    72    1.1   235     2.9   786.8    0.00 
 110    1:50   0.00   31.9    70    0.8   228     2.6   786.8    0.00 
 110    2:00   0.00   31.2    73    0.8   167     2.0   786.8    0.00 
 110    2:10   0.00   31.0    73    1.3   244     2.6   786.9    0.00 
 110    2:20   0.00   30.1    75    2.7   246     4.8   786.9    0.00 
 110    2:30   0.00   28.9    77    1.6   266     4.1   786.9    0.00 
 110    2:40   0.00   27.9    80    0.9   282     3.9   786.9    0.00 
 110    2:50   0.00   28.0    78    1.8   251     3.9   787.0    0.00 
 110    3:00   0.00   27.9    76    2.2   166     4.2   787.1    0.00 
 110    3:10   0.00   27.6    77    0.5   223     4.3   787.0    0.00 
 110    3:20   0.00   27.1    77    2.3   242     4.5   787.0    0.00 
 110    3:30   0.00   27.1    79    1.2   278     2.0   786.9    0.00 
 110    3:40   0.00   27.5    78    2.0   271     3.6   786.9    0.00 
 110    3:50   0.00   26.8    80    2.8   305     5.8   786.9    0.00 
 110    4:00   0.00   26.6    80    2.8   297     5.9   786.9    0.00 
 110    4:10   0.00   26.2    78    0.7   270     2.5   786.8    0.00 
 110    4:20   0.00   26.0    79    1.4   306     2.7   786.9    0.00 
 110    4:30   0.00   25.4    80    1.8   263     3.9   787.0    0.00 
 110    4:40   0.00   25.8    78    1.8   225     3.2   787.1    0.00 
 110    4:50   0.00   25.4    77    1.2   243     3.0   787.0    0.00 
 110    5:00   0.00   26.7    74    0.2   255     1.2   787.1    0.00 
 110    5:10   0.00   24.9    78    0.4   224     1.2   787.2    0.00 
 110    5:20   0.00   24.5    78    1.5   224     3.5   787.3    0.00 
 110    5:30   0.00   23.7    81    2.5   227     3.8   787.3    0.00 
 110    5:40   0.01   24.9    79    2.3   271     4.9   787.3    0.00 
 110    5:50   0.03   24.9    76    4.5   316     6.6   787.3    0.00 
 110    6:00   0.07   25.1    78    2.2   230     3.6   787.4    0.00 
 110    6:10   0.10   27.0    76    3.4   313     6.0   787.6    0.00 
 110    6:20   0.15   29.8    69    2.7   269     6.4   787.7    0.00 
 110    6:30   0.15   32.8    64    2.0   306     3.1   787.8    0.00 

Return to SNARL Reserve graphs page.


Western Regional Climate Center,wrcc@dri.edu